CheckWX is a tool to help pilots better visualize weather data.  It is not intended as a substitute for an official pre-flight weather briefing.

17:00:34 UTC

KCXO METAR
Conroe-North Houston Regional Airport
Houston, Texas, USA
Current

1 hour ago

KCXO 251553Z 11006KT 10SM CLR 13/04 A3020 RMK AO2 SLP224 T01280039
Observed
Jan-25 @ 15:53 UTC
Wind
  • 110° at 6 KTS
Visibility
10 SM
Flight Rules
VFR
Cloud Levels
  • Clear skies
Temperature
13°C / 55°F
Dewpoint
C / 39°F
Humidity
55%
Altimeter
30.2" Hg
Pressure
1022.72 hPa
Previous

2 hours ago

KCXO 251453Z 12006KT 10SM CLR 09/04 A3020 RMK AO2 SLP225 T00940039 51013
Observed
Jan-25 @ 14:53 UTC
Wind
  • 120° at 6 KTS
Visibility
10 SM
Flight Rules
VFR
Cloud Levels
  • Clear skies
Temperature
C / 48°F
Dewpoint
C / 39°F
Humidity
71%
Altimeter
30.2" Hg
Pressure
1022.72 hPa
Previous

3 hours ago

KCXO 251353Z 00000KT 10SM CLR 03/02 A3019 RMK AO2 SLP222 T00280017
Observed
Jan-25 @ 13:53 UTC
Visibility
10 SM
Flight Rules
VFR
Cloud Levels
  • Clear skies
Temperature
C / 37°F
Dewpoint
C / 36°F
Humidity
93%
Altimeter
30.19" Hg
Pressure
1022.32 hPa